sensor_id;sensor_type;location;lat;lon;timestamp;P1;durP1;ratioP1;P2;durP2;ratioP2
69081;SDS011;69029;51.986;5.760;2023-04-10T00:02:12;17.73;;;11.35;;
69081;SDS011;69029;51.986;5.760;2023-04-10T00:04:38;19.02;;;12.20;;
69081;SDS011;69029;51.986;5.760;2023-04-10T00:07:03;21.10;;;12.25;;
69081;SDS011;69029;51.986;5.760;2023-04-10T00:09:29;16.30;;;10.52;;
69081;SDS011;69029;51.986;5.760;2023-04-10T00:11:55;15.93;;;10.68;;
69081;SDS011;69029;51.986;5.760;2023-04-10T00:14:21;17.08;;;11.13;;
69081;SDS011;69029;51.986;5.760;2023-04-10T00:16:48;15.95;;;9.40;;
69081;SDS011;69029;51.986;5.760;2023-04-10T00:19:14;15.93;;;10.98;;
69081;SDS011;69029;51.986;5.760;2023-04-10T00:21:40;13.68;;;9.75;;
69081;SDS011;69029;51.986;5.760;2023-04-10T00:24:06;15.75;;;10.23;;
69081;SDS011;69029;51.986;5.760;2023-04-10T00:26:33;13.27;;;9.55;;
69081;SDS011;69029;51.986;5.760;2023-04-10T00:29:01;14.13;;;9.52;;
69081;SDS011;69029;51.986;5.760;2023-04-10T00:31:28;13.13;;;9.05;;
69081;SDS011;69029;51.986;5.760;2023-04-10T00:33:54;18.13;;;9.18;;
69081;SDS011;69029;51.986;5.760;2023-04-10T00:36:19;11.82;;;8.80;;
69081;SDS011;69029;51.986;5.760;2023-04-10T00:38:47;10.85;;;8.30;;
69081;SDS011;69029;51.986;5.760;2023-04-10T00:41:13;10.20;;;7.53;;
69081;SDS011;69029;51.986;5.760;2023-04-10T00:43:39;11.88;;;8.20;;
69081;SDS011;69029;51.986;5.760;2023-04-10T00:46:05;16.40;;;8.02;;
69081;SDS011;69029;51.986;5.760;2023-04-10T00:48:31;11.73;;;7.63;;
69081;SDS011;69029;51.986;5.760;2023-04-10T00:50:57;11.18;;;7.10;;
69081;SDS011;69029;51.986;5.760;2023-04-10T00:53:24;12.40;;;7.90;;
69081;SDS011;69029;51.986;5.760;2023-04-10T00:55:50;14.35;;;7.07;;
69081;SDS011;69029;51.986;5.760;2023-04-10T00:58:16;11.13;;;7.28;;
69081;SDS011;69029;51.986;5.760;2023-04-10T01:00:42;11.73;;;7.03;;
69081;SDS011;69029;51.986;5.760;2023-04-10T01:03:08;9.35;;;7.20;;
69081;SDS011;69029;51.986;5.760;2023-04-10T01:05:41;10.65;;;7.40;;
69081;SDS011;69029;51.986;5.760;2023-04-10T01:08:29;9.40;;;6.55;;
69081;SDS011;69029;51.986;5.760;2023-04-10T01:11:01;10.90;;;6.93;;
69081;SDS011;69029;51.986;5.760;2023-04-10T01:13:44;13.20;;;6.75;;
69081;SDS011;69029;51.986;5.760;2023-04-10T01:16:17;9.98;;;7.30;;
69081;SDS011;69029;51.986;5.760;2023-04-10T01:21:46;9.45;;;6.80;;
69081;SDS011;69029;51.986;5.760;2023-04-10T01:24:15;10.18;;;7.05;;
69081;SDS011;69029;51.986;5.760;2023-04-10T01:29:22;9.63;;;7.10;;
69081;SDS011;69029;51.986;5.760;2023-04-10T01:31:56;9.10;;;7.00;;
69081;SDS011;69029;51.986;5.760;2023-04-10T01:34:27;9.77;;;6.75;;
69081;SDS011;69029;51.986;5.760;2023-04-10T01:36:59;11.13;;;6.70;;
69081;SDS011;69029;51.986;5.760;2023-04-10T01:39:28;8.32;;;6.75;;
69081;SDS011;69029;51.986;5.760;2023-04-10T01:41:55;9.05;;;6.53;;
69081;SDS011;69029;51.986;5.760;2023-04-10T01:44:24;10.25;;;7.50;;
69081;SDS011;69029;51.986;5.760;2023-04-10T01:46:54;9.40;;;7.03;;
69081;SDS011;69029;51.986;5.760;2023-04-10T01:49:23;9.80;;;6.93;;
69081;SDS011;69029;51.986;5.760;2023-04-10T01:51:50;9.93;;;6.57;;
69081;SDS011;69029;51.986;5.760;2023-04-10T01:54:18;10.18;;;7.32;;
69081;SDS011;69029;51.986;5.760;2023-04-10T01:56:44;9.77;;;7.10;;
69081;SDS011;69029;51.986;5.760;2023-04-10T01:59:10;9.95;;;6.60;;
69081;SDS011;69029;51.986;5.760;2023-04-10T02:01:38;9.00;;;6.35;;
69081;SDS011;69029;51.986;5.760;2023-04-10T02:04:06;11.02;;;6.72;;
69081;SDS011;69029;51.986;5.760;2023-04-10T02:06:36;10.75;;;7.10;;
69081;SDS011;69029;51.986;5.760;2023-04-10T02:09:18;9.15;;;6.70;;
69081;SDS011;69029;51.986;5.760;2023-04-10T02:11:58;11.80;;;6.78;;
69081;SDS011;69029;51.986;5.760;2023-04-10T02:14:30;8.10;;;6.53;;
69081;SDS011;69029;51.986;5.760;2023-04-10T02:16:57;11.20;;;6.97;;
69081;SDS011;69029;51.986;5.760;2023-04-10T02:19:26;9.73;;;6.50;;
69081;SDS011;69029;51.986;5.760;2023-04-10T02:21:52;8.93;;;6.60;;
69081;SDS011;69029;51.986;5.760;2023-04-10T02:24:19;8.50;;;5.93;;
69081;SDS011;69029;51.986;5.760;2023-04-10T02:26:49;8.68;;;6.05;;
69081;SDS011;69029;51.986;5.760;2023-04-10T02:29:15;8.73;;;6.53;;
69081;SDS011;69029;51.986;5.760;2023-04-10T02:31:41;10.60;;;6.55;;
69081;SDS011;69029;51.986;5.760;2023-04-10T02:34:08;8.38;;;6.20;;
69081;SDS011;69029;51.986;5.760;2023-04-10T02:36:35;9.30;;;6.60;;
69081;SDS011;69029;51.986;5.760;2023-04-10T02:39:01;9.15;;;6.60;;
69081;SDS011;69029;51.986;5.760;2023-04-10T02:41:27;9.18;;;6.30;;
69081;SDS011;69029;51.986;5.760;2023-04-10T02:43:53;8.30;;;6.25;;
69081;SDS011;69029;51.986;5.760;2023-04-10T02:46:19;10.15;;;6.28;;
69081;SDS011;69029;51.986;5.760;2023-04-10T02:48:44;9.82;;;6.70;;
69081;SDS011;69029;51.986;5.760;2023-04-10T02:51:10;9.30;;;6.53;;
69081;SDS011;69029;51.986;5.760;2023-04-10T02:53:35;9.77;;;6.85;;
69081;SDS011;69029;51.986;5.760;2023-04-10T02:56:01;6.75;;;5.68;;
69081;SDS011;69029;51.986;5.760;2023-04-10T02:58:27;8.93;;;6.40;;
69081;SDS011;69029;51.986;5.760;2023-04-10T03:00:56;9.07;;;5.85;;
69081;SDS011;69029;51.986;5.760;2023-04-10T03:03:22;8.23;;;6.38;;
69081;SDS011;69029;51.986;5.760;2023-04-10T03:05:48;13.85;;;6.47;;
69081;SDS011;69029;51.986;5.760;2023-04-10T03:08:16;8.52;;;6.32;;
69081;SDS011;69029;51.986;5.760;2023-04-10T03:10:43;8.02;;;6.28;;
69081;SDS011;69029;51.986;5.760;2023-04-10T03:13:09;7.93;;;6.05;;
69081;SDS011;69029;51.986;5.760;2023-04-10T03:15:35;8.02;;;6.07;;
69081;SDS011;69029;51.986;5.760;2023-04-10T03:18:01;8.00;;;5.97;;
69081;SDS011;69029;51.986;5.760;2023-04-10T03:20:27;7.75;;;5.97;;
69081;SDS011;69029;51.986;5.760;2023-04-10T03:22:52;8.55;;;6.50;;
69081;SDS011;69029;51.986;5.760;2023-04-10T03:25:18;8.48;;;6.15;;
69081;SDS011;69029;51.986;5.760;2023-04-10T03:27:45;7.70;;;5.82;;
69081;SDS011;69029;51.986;5.760;2023-04-10T03:30:11;8.07;;;6.10;;
69081;SDS011;69029;51.986;5.760;2023-04-10T03:32:36;9.82;;;6.57;;
69081;SDS011;69029;51.986;5.760;2023-04-10T03:35:03;10.45;;;6.10;;
69081;SDS011;69029;51.986;5.760;2023-04-10T03:37:28;10.23;;;6.13;;
69081;SDS011;69029;51.986;5.760;2023-04-10T03:39:55;8.07;;;5.97;;
69081;SDS011;69029;51.986;5.760;2023-04-10T03:42:21;7.05;;;5.65;;
69081;SDS011;69029;51.986;5.760;2023-04-10T03:44:47;8.13;;;6.35;;
69081;SDS011;69029;51.986;5.760;2023-04-10T03:47:12;10.05;;;6.95;;
69081;SDS011;69029;51.986;5.760;2023-04-10T03:49:38;10.05;;;6.80;;
69081;SDS011;69029;51.986;5.760;2023-04-10T03:52:03;9.25;;;7.05;;
69081;SDS011;69029;51.986;5.760;2023-04-10T03:54:29;9.13;;;6.53;;
69081;SDS011;69029;51.986;5.760;2023-04-10T03:56:55;13.10;;;7.55;;
69081;SDS011;69029;51.986;5.760;2023-04-10T03:59:21;13.20;;;7.57;;
69081;SDS011;69029;51.986;5.760;2023-04-10T04:01:46;10.63;;;7.10;;
69081;SDS011;69029;51.986;5.760;2023-04-10T04:04:12;11.23;;;7.80;;
69081;SDS011;69029;51.986;5.760;2023-04-10T04:06:38;11.70;;;7.88;;
69081;SDS011;69029;51.986;5.760;2023-04-10T04:09:03;10.63;;;7.75;;
69081;SDS011;69029;51.986;5.760;2023-04-10T04:11:29;9.43;;;7.05;;
69081;SDS011;69029;51.986;5.760;2023-04-10T04:13:55;10.27;;;7.50;;
69081;SDS011;69029;51.986;5.760;2023-04-10T04:16:21;10.27;;;7.45;;
69081;SDS011;69029;51.986;5.760;2023-04-10T04:18:46;9.55;;;7.10;;
69081;SDS011;69029;51.986;5.760;2023-04-10T04:21:12;11.52;;;7.75;;
69081;SDS011;69029;51.986;5.760;2023-04-10T04:23:38;11.27;;;7.35;;
69081;SDS011;69029;51.986;5.760;2023-04-10T04:26:03;11.05;;;7.82;;
69081;SDS011;69029;51.986;5.760;2023-04-10T04:28:29;10.65;;;7.70;;
69081;SDS011;69029;51.986;5.760;2023-04-10T04:30:55;10.48;;;7.25;;
69081;SDS011;69029;51.986;5.760;2023-04-10T04:33:20;9.70;;;7.00;;
69081;SDS011;69029;51.986;5.760;2023-04-10T04:35:46;10.48;;;7.30;;
69081;SDS011;69029;51.986;5.760;2023-04-10T04:38:13;10.23;;;7.32;;
69081;SDS011;69029;51.986;5.760;2023-04-10T04:40:40;10.63;;;7.10;;
69081;SDS011;69029;51.986;5.760;2023-04-10T04:43:06;10.48;;;7.55;;
69081;SDS011;69029;51.986;5.760;2023-04-10T04:45:32;15.65;;;8.50;;
69081;SDS011;69029;51.986;5.760;2023-04-10T04:47:57;10.25;;;7.10;;
69081;SDS011;69029;51.986;5.760;2023-04-10T04:50:23;10.25;;;7.07;;
69081;SDS011;69029;51.986;5.760;2023-04-10T04:52:48;10.45;;;7.05;;
69081;SDS011;69029;51.986;5.760;2023-04-10T04:55:14;13.02;;;7.35;;
69081;SDS011;69029;51.986;5.760;2023-04-10T04:57:39;12.30;;;7.68;;
69081;SDS011;69029;51.986;5.760;2023-04-10T05:00:05;10.60;;;7.00;;
69081;SDS011;69029;51.986;5.760;2023-04-10T05:02:31;9.32;;;6.40;;
69081;SDS011;69029;51.986;5.760;2023-04-10T05:04:57;10.70;;;7.70;;
69081;SDS011;69029;51.986;5.760;2023-04-10T05:07:22;12.80;;;7.18;;
69081;SDS011;69029;51.986;5.760;2023-04-10T05:09:48;9.82;;;7.00;;
69081;SDS011;69029;51.986;5.760;2023-04-10T05:12:14;12.57;;;8.07;;
69081;SDS011;69029;51.986;5.760;2023-04-10T05:14:40;11.23;;;7.00;;
69081;SDS011;69029;51.986;5.760;2023-04-10T05:17:05;11.75;;;7.35;;
69081;SDS011;69029;51.986;5.760;2023-04-10T05:19:31;10.75;;;7.32;;
69081;SDS011;69029;51.986;5.760;2023-04-10T05:21:57;11.65;;;7.80;;
69081;SDS011;69029;51.986;5.760;2023-04-10T05:24:22;11.95;;;7.50;;
69081;SDS011;69029;51.986;5.760;2023-04-10T05:26:48;9.90;;;7.35;;
69081;SDS011;69029;51.986;5.760;2023-04-10T05:29:13;11.02;;;7.07;;
69081;SDS011;69029;51.986;5.760;2023-04-10T05:31:39;12.55;;;7.57;;
69081;SDS011;69029;51.986;5.760;2023-04-10T05:34:05;9.77;;;7.40;;
69081;SDS011;69029;51.986;5.760;2023-04-10T05:36:30;10.02;;;6.45;;
69081;SDS011;69029;51.986;5.760;2023-04-10T05:38:56;10.68;;;8.00;;
69081;SDS011;69029;51.986;5.760;2023-04-10T05:41:22;10.48;;;7.07;;
69081;SDS011;69029;51.986;5.760;2023-04-10T05:43:47;13.52;;;7.43;;
69081;SDS011;69029;51.986;5.760;2023-04-10T05:46:13;10.32;;;7.45;;
69081;SDS011;69029;51.986;5.760;2023-04-10T05:48:39;10.48;;;7.07;;
69081;SDS011;69029;51.986;5.760;2023-04-10T05:51:05;11.15;;;7.50;;
69081;SDS011;69029;51.986;5.760;2023-04-10T05:53:31;14.18;;;8.13;;
69081;SDS011;69029;51.986;5.760;2023-04-10T05:55:57;11.63;;;7.80;;
69081;SDS011;69029;51.986;5.760;2023-04-10T05:58:26;10.98;;;7.22;;
69081;SDS011;69029;51.986;5.760;2023-04-10T06:00:52;12.73;;;7.65;;
69081;SDS011;69029;51.986;5.760;2023-04-10T06:03:18;11.32;;;7.47;;
69081;SDS011;69029;51.986;5.760;2023-04-10T06:05:44;9.82;;;6.75;;
69081;SDS011;69029;51.986;5.760;2023-04-10T06:08:10;11.70;;;7.25;;
69081;SDS011;69029;51.986;5.760;2023-04-10T06:10:36;10.32;;;6.70;;
69081;SDS011;69029;51.986;5.760;2023-04-10T06:13:02;10.82;;;7.00;;
69081;SDS011;69029;51.986;5.760;2023-04-10T06:15:27;10.25;;;6.55;;
69081;SDS011;69029;51.986;5.760;2023-04-10T06:17:53;10.75;;;6.80;;
69081;SDS011;69029;51.986;5.760;2023-04-10T06:20:19;9.57;;;6.55;;
69081;SDS011;69029;51.986;5.760;2023-04-10T06:22:45;13.20;;;6.85;;
69081;SDS011;69029;51.986;5.760;2023-04-10T06:25:11;9.50;;;6.72;;
69081;SDS011;69029;51.986;5.760;2023-04-10T06:27:37;7.55;;;6.10;;
69081;SDS011;69029;51.986;5.760;2023-04-10T06:30:03;9.88;;;6.93;;
69081;SDS011;69029;51.986;5.760;2023-04-10T06:32:29;10.48;;;6.53;;
69081;SDS011;69029;51.986;5.760;2023-04-10T06:34:55;9.75;;;6.72;;
69081;SDS011;69029;51.986;5.760;2023-04-10T06:37:28;9.93;;;6.82;;
69081;SDS011;69029;51.986;5.760;2023-04-10T06:40:01;8.95;;;6.65;;
69081;SDS011;69029;51.986;5.760;2023-04-10T06:42:34;9.48;;;6.50;;
69081;SDS011;69029;51.986;5.760;2023-04-10T06:45:01;9.20;;;6.95;;
69081;SDS011;69029;51.986;5.760;2023-04-10T06:47:27;10.32;;;6.50;;
69081;SDS011;69029;51.986;5.760;2023-04-10T06:49:53;9.65;;;6.85;;
69081;SDS011;69029;51.986;5.760;2023-04-10T06:52:19;8.40;;;6.38;;
69081;SDS011;69029;51.986;5.760;2023-04-10T06:54:45;9.85;;;6.80;;
69081;SDS011;69029;51.986;5.760;2023-04-10T06:57:10;8.00;;;6.15;;
69081;SDS011;69029;51.986;5.760;2023-04-10T06:59:36;9.27;;;6.55;;
69081;SDS011;69029;51.986;5.760;2023-04-10T07:02:02;8.95;;;6.70;;
69081;SDS011;69029;51.986;5.760;2023-04-10T07:04:28;8.07;;;6.57;;
69081;SDS011;69029;51.986;5.760;2023-04-10T07:06:53;8.63;;;6.30;;
69081;SDS011;69029;51.986;5.760;2023-04-10T07:09:19;9.27;;;6.45;;
69081;SDS011;69029;51.986;5.760;2023-04-10T07:11:45;9.43;;;6.63;;
69081;SDS011;69029;51.986;5.760;2023-04-10T07:14:10;8.85;;;6.97;;
69081;SDS011;69029;51.986;5.760;2023-04-10T07:16:36;9.40;;;6.63;;
69081;SDS011;69029;51.986;5.760;2023-04-10T07:19:01;8.95;;;6.63;;
69081;SDS011;69029;51.986;5.760;2023-04-10T07:21:27;9.95;;;6.20;;
69081;SDS011;69029;51.986;5.760;2023-04-10T07:23:53;10.57;;;6.45;;
69081;SDS011;69029;51.986;5.760;2023-04-10T07:26:19;9.70;;;6.43;;
69081;SDS011;69029;51.986;5.760;2023-04-10T07:28:45;9.57;;;6.50;;
69081;SDS011;69029;51.986;5.760;2023-04-10T07:31:10;10.40;;;6.43;;
69081;SDS011;69029;51.986;5.760;2023-04-10T07:33:37;8.70;;;6.13;;
69081;SDS011;69029;51.986;5.760;2023-04-10T07:36:03;7.35;;;5.50;;
69081;SDS011;69029;51.986;5.760;2023-04-10T07:38:30;10.18;;;6.80;;
69081;SDS011;69029;51.986;5.760;2023-04-10T07:40:56;11.65;;;7.28;;
69081;SDS011;69029;51.986;5.760;2023-04-10T07:43:23;9.73;;;6.60;;
69081;SDS011;69029;51.986;5.760;2023-04-10T07:45:49;8.70;;;6.07;;
69081;SDS011;69029;51.986;5.760;2023-04-10T07:48:14;7.82;;;6.22;;
69081;SDS011;69029;51.986;5.760;2023-04-10T07:50:40;8.13;;;6.22;;
69081;SDS011;69029;51.986;5.760;2023-04-10T07:53:06;6.60;;;5.45;;
69081;SDS011;69029;51.986;5.760;2023-04-10T07:58:04;8.18;;;5.63;;
69081;SDS011;69029;51.986;5.760;2023-04-10T08:00:30;7.32;;;5.70;;
69081;SDS011;69029;51.986;5.760;2023-04-10T08:02:56;9.25;;;5.50;;
69081;SDS011;69029;51.986;5.760;2023-04-10T08:05:22;10.32;;;6.18;;
69081;SDS011;69029;51.986;5.760;2023-04-10T08:07:47;6.97;;;5.57;;
69081;SDS011;69029;51.986;5.760;2023-04-10T08:10:13;9.43;;;5.97;;
69081;SDS011;69029;51.986;5.760;2023-04-10T08:12:38;6.97;;;5.38;;
69081;SDS011;69029;51.986;5.760;2023-04-10T08:15:04;10.18;;;5.63;;
69081;SDS011;69029;51.986;5.760;2023-04-10T08:17:30;7.15;;;5.57;;
69081;SDS011;69029;51.986;5.760;2023-04-10T08:19:56;6.35;;;5.30;;
69081;SDS011;69029;51.986;5.760;2023-04-10T08:22:21;7.45;;;4.75;;
69081;SDS011;69029;51.986;5.760;2023-04-10T08:24:47;6.20;;;5.25;;
69081;SDS011;69029;51.986;5.760;2023-04-10T08:27:12;7.55;;;5.30;;
69081;SDS011;69029;51.986;5.760;2023-04-10T08:29:40;6.97;;;5.13;;
69081;SDS011;69029;51.986;5.760;2023-04-10T08:32:06;6.47;;;5.15;;
69081;SDS011;69029;51.986;5.760;2023-04-10T08:34:31;7.15;;;5.15;;
69081;SDS011;69029;51.986;5.760;2023-04-10T08:36:57;6.95;;;5.30;;
69081;SDS011;69029;51.986;5.760;2023-04-10T08:39:23;6.32;;;4.93;;
69081;SDS011;69029;51.986;5.760;2023-04-10T08:41:49;8.02;;;5.47;;
69081;SDS011;69029;51.986;5.760;2023-04-10T08:44:16;8.77;;;5.60;;
69081;SDS011;69029;51.986;5.760;2023-04-10T08:46:43;7.85;;;5.70;;
69081;SDS011;69029;51.986;5.760;2023-04-10T08:52:03;8.07;;;5.63;;
69081;SDS011;69029;51.986;5.760;2023-04-10T08:57:03;8.50;;;5.55;;
69081;SDS011;69029;51.986;5.760;2023-04-10T08:59:30;7.10;;;5.28;;
69081;SDS011;69029;51.986;5.760;2023-04-10T09:02:00;7.85;;;5.13;;
69081;SDS011;69029;51.986;5.760;2023-04-10T09:04:25;7.65;;;5.50;;
69081;SDS011;69029;51.986;5.760;2023-04-10T09:06:54;7.85;;;5.97;;
69081;SDS011;69029;51.986;5.760;2023-04-10T09:09:21;8.15;;;5.82;;
69081;SDS011;69029;51.986;5.760;2023-04-10T09:14:25;6.68;;;5.50;;
69081;SDS011;69029;51.986;5.760;2023-04-10T09:16:53;12.50;;;5.53;;
69081;SDS011;69029;51.986;5.760;2023-04-10T09:19:35;6.72;;;5.60;;
69081;SDS011;69029;51.986;5.760;2023-04-10T09:22:01;6.85;;;4.68;;
69081;SDS011;69029;51.986;5.760;2023-04-10T09:24:26;6.13;;;5.20;;
69081;SDS011;69029;51.986;5.760;2023-04-10T09:26:52;8.88;;;6.00;;
69081;SDS011;69029;51.986;5.760;2023-04-10T09:29:18;8.07;;;6.40;;
69081;SDS011;69029;51.986;5.760;2023-04-10T09:31:44;8.10;;;5.78;;
69081;SDS011;69029;51.986;5.760;2023-04-10T09:34:20;7.45;;;5.55;;
69081;SDS011;69029;51.986;5.760;2023-04-10T09:36:53;6.45;;;5.13;;
69081;SDS011;69029;51.986;5.760;2023-04-10T09:39:33;8.07;;;5.43;;
69081;SDS011;69029;51.986;5.760;2023-04-10T09:42:07;6.20;;;5.60;;
69081;SDS011;69029;51.986;5.760;2023-04-10T09:44:34;7.70;;;5.38;;
69081;SDS011;69029;51.986;5.760;2023-04-10T09:49:45;10.40;;;5.05;;
69081;SDS011;69029;51.986;5.760;2023-04-10T09:52:33;6.38;;;5.50;;
69081;SDS011;69029;51.986;5.760;2023-04-10T09:55:02;5.20;;;4.50;;
69081;SDS011;69029;51.986;5.760;2023-04-10T09:57:30;6.10;;;5.10;;
69081;SDS011;69029;51.986;5.760;2023-04-10T10:00:03;6.18;;;4.90;;
69081;SDS011;69029;51.986;5.760;2023-04-10T10:02:32;6.88;;;5.20;;
69081;SDS011;69029;51.986;5.760;2023-04-10T10:05:05;6.90;;;4.93;;
69081;SDS011;69029;51.986;5.760;2023-04-10T10:07:31;7.55;;;5.10;;
69081;SDS011;69029;51.986;5.760;2023-04-10T10:09:57;6.88;;;4.80;;
69081;SDS011;69029;51.986;5.760;2023-04-10T10:12:25;6.32;;;4.63;;
69081;SDS011;69029;51.986;5.760;2023-04-10T10:17:38;5.93;;;4.65;;
69081;SDS011;69029;51.986;5.760;2023-04-10T10:20:10;5.85;;;4.60;;
69081;SDS011;69029;51.986;5.760;2023-04-10T10:22:41;6.50;;;4.45;;
69081;SDS011;69029;51.986;5.760;2023-04-10T10:25:07;5.32;;;4.75;;
69081;SDS011;69029;51.986;5.760;2023-04-10T10:27:35;6.10;;;4.70;;
69081;SDS011;69029;51.986;5.760;2023-04-10T10:30:02;5.20;;;4.07;;
69081;SDS011;69029;51.986;5.760;2023-04-10T10:32:29;4.65;;;4.07;;
69081;SDS011;69029;51.986;5.760;2023-04-10T10:34:56;5.25;;;4.15;;
69081;SDS011;69029;51.986;5.760;2023-04-10T10:37:22;6.80;;;4.50;;
69081;SDS011;69029;51.986;5.760;2023-04-10T10:42:59;4.70;;;4.20;;
69081;SDS011;69029;51.986;5.760;2023-04-10T10:45:33;4.55;;;3.95;;
69081;SDS011;69029;51.986;5.760;2023-04-10T10:48:00;8.65;;;4.57;;
69081;SDS011;69029;51.986;5.760;2023-04-10T10:50:48;4.95;;;4.45;;
69081;SDS011;69029;51.986;5.760;2023-04-10T11:01:14;6.15;;;4.65;;
69081;SDS011;69029;51.986;5.760;2023-04-10T11:03:40;5.38;;;4.40;;
69081;SDS011;69029;51.986;5.760;2023-04-10T11:06:08;5.70;;;4.80;;
69081;SDS011;69029;51.986;5.760;2023-04-10T11:11:18;4.93;;;4.25;;
69081;SDS011;69029;51.986;5.760;2023-04-10T11:16:15;6.75;;;3.70;;
69081;SDS011;69029;51.986;5.760;2023-04-10T11:23:37;5.03;;;4.10;;
69081;SDS011;69029;51.986;5.760;2023-04-10T11:31:38;4.20;;;3.80;;
69081;SDS011;69029;51.986;5.760;2023-04-10T11:34:07;5.97;;;4.07;;
69081;SDS011;69029;51.986;5.760;2023-04-10T11:36:39;5.05;;;3.88;;
69081;SDS011;69029;51.986;5.760;2023-04-10T11:39:06;5.43;;;4.15;;
69081;SDS011;69029;51.986;5.760;2023-04-10T11:41:36;3.85;;;3.45;;
69081;SDS011;69029;51.986;5.760;2023-04-10T11:44:25;6.60;;;3.73;;
69081;SDS011;69029;51.986;5.760;2023-04-10T11:46:56;8.55;;;3.97;;
69081;SDS011;69029;51.986;5.760;2023-04-10T11:49:40;5.45;;;4.28;;
69081;SDS011;69029;51.986;5.760;2023-04-10T11:54:31;7.70;;;3.80;;
69081;SDS011;69029;51.986;5.760;2023-04-10T11:57:07;6.32;;;4.20;;
69081;SDS011;69029;51.986;5.760;2023-04-10T11:59:33;9.98;;;3.75;;
69081;SDS011;69029;51.986;5.760;2023-04-10T12:02:13;6.88;;;3.72;;
69081;SDS011;69029;51.986;5.760;2023-04-10T12:04:39;9.27;;;3.55;;
69081;SDS011;69029;51.986;5.760;2023-04-10T12:07:06;3.97;;;3.58;;
69081;SDS011;69029;51.986;5.760;2023-04-10T12:09:33;4.00;;;3.60;;
69081;SDS011;69029;51.986;5.760;2023-04-10T12:11:59;4.03;;;3.55;;
69081;SDS011;69029;51.986;5.760;2023-04-10T12:14:30;5.90;;;3.53;;
69081;SDS011;69029;51.986;5.760;2023-04-10T12:17:01;3.50;;;3.03;;
69081;SDS011;69029;51.986;5.760;2023-04-10T12:19:27;5.30;;;3.20;;
69081;SDS011;69029;51.986;5.760;2023-04-10T12:21:54;4.32;;;3.55;;
69081;SDS011;69029;51.986;5.760;2023-04-10T12:27:17;5.38;;;3.30;;
69081;SDS011;69029;51.986;5.760;2023-04-10T12:29:45;6.22;;;3.05;;
69081;SDS011;69029;51.986;5.760;2023-04-10T12:32:12;3.45;;;3.15;;
69081;SDS011;69029;51.986;5.760;2023-04-10T12:34:38;4.72;;;3.08;;
69081;SDS011;69029;51.986;5.760;2023-04-10T12:37:04;6.05;;;2.90;;
69081;SDS011;69029;51.986;5.760;2023-04-10T12:39:31;6.93;;;3.13;;
69081;SDS011;69029;51.986;5.760;2023-04-10T12:42:16;4.63;;;3.10;;
69081;SDS011;69029;51.986;5.760;2023-04-10T12:47:18;3.90;;;2.78;;
69081;SDS011;69029;51.986;5.760;2023-04-10T12:52:28;3.17;;;2.65;;
69081;SDS011;69029;51.986;5.760;2023-04-10T12:54:54;4.28;;;2.40;;
69081;SDS011;69029;51.986;5.760;2023-04-10T12:57:32;3.88;;;3.00;;
69081;SDS011;69029;51.986;5.760;2023-04-10T12:59:58;4.03;;;2.80;;
69081;SDS011;69029;51.986;5.760;2023-04-10T13:02:24;4.32;;;2.80;;
69081;SDS011;69029;51.986;5.760;2023-04-10T13:04:53;4.35;;;2.70;;
69081;SDS011;69029;51.986;5.760;2023-04-10T13:07:19;3.00;;;2.70;;
69081;SDS011;69029;51.986;5.760;2023-04-10T13:09:44;3.10;;;2.80;;
69081;SDS011;69029;51.986;5.760;2023-04-10T13:12:11;3.50;;;3.10;;
69081;SDS011;69029;51.986;5.760;2023-04-10T13:14:37;3.80;;;2.95;;
69081;SDS011;69029;51.986;5.760;2023-04-10T13:17:03;8.18;;;3.20;;
69081;SDS011;69029;51.986;5.760;2023-04-10T13:19:28;5.32;;;3.00;;
69081;SDS011;69029;51.986;5.760;2023-04-10T13:21:54;2.88;;;2.53;;
69081;SDS011;69029;51.986;5.760;2023-04-10T13:24:20;4.10;;;2.63;;
69081;SDS011;69029;51.986;5.760;2023-04-10T13:26:46;4.05;;;2.50;;
69081;SDS011;69029;51.986;5.760;2023-04-10T13:29:11;3.70;;;2.55;;
69081;SDS011;69029;51.986;5.760;2023-04-10T13:31:37;3.22;;;2.67;;
69081;SDS011;69029;51.986;5.760;2023-04-10T13:34:02;3.30;;;2.45;;
69081;SDS011;69029;51.986;5.760;2023-04-10T13:36:28;4.80;;;2.75;;
69081;SDS011;69029;51.986;5.760;2023-04-10T13:38:55;5.72;;;2.88;;
69081;SDS011;69029;51.986;5.760;2023-04-10T13:41:21;3.65;;;2.35;;
69081;SDS011;69029;51.986;5.760;2023-04-10T13:43:47;4.15;;;2.70;;
69081;SDS011;69029;51.986;5.760;2023-04-10T13:46:13;4.25;;;2.30;;
69081;SDS011;69029;51.986;5.760;2023-04-10T13:48:38;2.83;;;2.42;;
69081;SDS011;69029;51.986;5.760;2023-04-10T13:51:06;4.07;;;2.60;;
69081;SDS011;69029;51.986;5.760;2023-04-10T13:53:32;3.72;;;2.30;;
69081;SDS011;69029;51.986;5.760;2023-04-10T13:55:58;3.13;;;2.45;;
69081;SDS011;69029;51.986;5.760;2023-04-10T13:58:23;3.35;;;2.30;;
69081;SDS011;69029;51.986;5.760;2023-04-10T14:00:50;2.60;;;2.40;;
69081;SDS011;69029;51.986;5.760;2023-04-10T14:03:16;3.33;;;2.20;;
69081;SDS011;69029;51.986;5.760;2023-04-10T14:05:41;4.40;;;2.20;;
69081;SDS011;69029;51.986;5.760;2023-04-10T14:08:08;3.30;;;2.30;;
69081;SDS011;69029;51.986;5.760;2023-04-10T14:10:35;4.68;;;2.20;;
69081;SDS011;69029;51.986;5.760;2023-04-10T14:13:03;3.22;;;2.15;;
69081;SDS011;69029;51.986;5.760;2023-04-10T14:15:30;3.20;;;2.17;;
69081;SDS011;69029;51.986;5.760;2023-04-10T14:17:56;3.25;;;2.38;;
69081;SDS011;69029;51.986;5.760;2023-04-10T14:20:21;2.78;;;2.40;;
69081;SDS011;69029;51.986;5.760;2023-04-10T14:22:47;5.82;;;2.20;;
69081;SDS011;69029;51.986;5.760;2023-04-10T14:25:13;4.90;;;2.40;;
69081;SDS011;69029;51.986;5.760;2023-04-10T14:27:40;2.92;;;2.05;;
69081;SDS011;69029;51.986;5.760;2023-04-10T14:30:06;4.72;;;2.58;;
69081;SDS011;69029;51.986;5.760;2023-04-10T14:32:33;3.88;;;2.13;;
69081;SDS011;69029;51.986;5.760;2023-04-10T14:34:58;2.25;;;2.05;;
69081;SDS011;69029;51.986;5.760;2023-04-10T14:37:24;4.93;;;2.45;;
69081;SDS011;69029;51.986;5.760;2023-04-10T14:39:50;3.53;;;2.10;;
69081;SDS011;69029;51.986;5.760;2023-04-10T14:42:15;3.30;;;2.33;;
69081;SDS011;69029;51.986;5.760;2023-04-10T14:44:41;4.93;;;2.30;;
69081;SDS011;69029;51.986;5.760;2023-04-10T14:47:06;8.15;;;3.03;;
69081;SDS011;69029;51.986;5.760;2023-04-10T14:49:32;9.02;;;2.55;;
69081;SDS011;69029;51.986;5.760;2023-04-10T14:51:58;3.78;;;2.40;;
69081;SDS011;69029;51.986;5.760;2023-04-10T14:54:24;4.75;;;2.60;;
69081;SDS011;69029;51.986;5.760;2023-04-10T14:56:49;3.35;;;2.55;;
69081;SDS011;69029;51.986;5.760;2023-04-10T14:59:15;3.65;;;2.60;;
69081;SDS011;69029;51.986;5.760;2023-04-10T15:01:41;5.18;;;2.40;;
69081;SDS011;69029;51.986;5.760;2023-04-10T15:04:07;3.05;;;2.20;;
69081;SDS011;69029;51.986;5.760;2023-04-10T15:06:33;6.07;;;2.60;;
69081;SDS011;69029;51.986;5.760;2023-04-10T15:08:58;2.80;;;2.60;;
69081;SDS011;69029;51.986;5.760;2023-04-10T15:11:24;5.28;;;3.00;;
69081;SDS011;69029;51.986;5.760;2023-04-10T15:13:50;6.43;;;3.35;;
69081;SDS011;69029;51.986;5.760;2023-04-10T15:16:16;3.47;;;2.72;;
69081;SDS011;69029;51.986;5.760;2023-04-10T15:18:42;3.50;;;2.97;;
69081;SDS011;69029;51.986;5.760;2023-04-10T15:21:16;5.30;;;2.78;;
69081;SDS011;69029;51.986;5.760;2023-04-10T15:23:42;5.47;;;3.08;;
69081;SDS011;69029;51.986;5.760;2023-04-10T15:26:11;4.50;;;2.35;;
69081;SDS011;69029;51.986;5.760;2023-04-10T15:28:38;5.07;;;2.80;;
69081;SDS011;69029;51.986;5.760;2023-04-10T15:31:04;5.35;;;2.70;;
69081;SDS011;69029;51.986;5.760;2023-04-10T15:33:30;4.63;;;3.17;;
69081;SDS011;69029;51.986;5.760;2023-04-10T15:35:56;5.88;;;3.10;;
69081;SDS011;69029;51.986;5.760;2023-04-10T15:38:22;4.30;;;2.92;;
69081;SDS011;69029;51.986;5.760;2023-04-10T15:40:50;7.10;;;3.22;;
69081;SDS011;69029;51.986;5.760;2023-04-10T15:43:15;6.22;;;3.50;;